Time;durP1;ratioP1;P1;durP2;ratioP2;P2;SDS_P1;SDS_P2;PMS_P1;PMS_P2;Temp;Humidity;BMP_temperature;BMP_pressure;BME280_temperature;BME280_humidity;BME280_pressure;Samples;Min_cycle;Max_cycle;Signal;HPM_P1;HPM_P2
2021/07/21 00:00:52;;;;;;;15.43;8.13;;;;;;;17.38;92.30;100000.53;6245187;28;20072;-77
2021/07/21 00:03:53;;;;;;;12.98;7.88;;;;;;;17.38;91.81;100002.31;6245058;28;20088;-78
2021/07/21 00:06:55;;;;;;;13.93;7.72;;;;;;;17.33;91.57;99994.81;6228816;28;20037;-78
2021/07/21 00:09:56;;;;;;;13.65;7.70;;;;;;;17.31;91.63;100002.84;6246196;28;20386;-78
2021/07/21 00:16:22;;;;;;;12.55;7.60;;;;;;;17.35;92.69;100002.59;6246149;28;20048;-77
2021/07/21 00:22:45;;;;;;;12.40;7.55;;;;;;;17.23;91.92;100001.88;6244989;28;20041;-77
2021/07/21 00:25:46;;;;;;;16.65;8.75;;;;;;;17.16;92.79;100001.63;6246050;28;20042;-77
2021/07/21 00:28:47;;;;;;;13.35;7.35;;;;;;;17.17;92.23;100000.63;6246069;28;20041;-77
2021/07/21 00:31:47;;;;;;;15.60;8.18;;;;;;;17.14;91.65;100000.09;6244607;28;20044;-77
2021/07/21 00:34:48;;;;;;;16.10;8.30;;;;;;;17.10;91.86;100003.00;6228382;28;20550;-77
2021/07/21 00:37:49;;;;;;;15.13;7.93;;;;;;;17.09;93.22;100000.47;6244601;28;20054;-78
2021/07/21 00:40:51;;;;;;;12.35;7.70;;;;;;;17.14;92.13;100003.56;6244681;28;20481;-78
2021/07/21 00:43:51;;;;;;;16.60;7.60;;;;;;;17.11;93.03;99998.53;6245755;28;20502;-77
2021/07/21 00:46:52;;;;;;;15.05;7.28;;;;;;;17.12;90.71;100005.50;6245692;28;20041;-77
2021/07/21 00:49:53;;;;;;;14.00;7.88;;;;;;;17.15;90.30;99997.28;6245728;28;20103;-77
2021/07/21 00:52:54;;;;;;;12.38;7.65;;;;;;;17.14;90.48;99994.81;6247850;28;20396;-77
2021/07/21 00:55:55;;;;;;;11.95;7.82;;;;;;;17.16;90.29;99995.50;6249336;28;20480;-77
2021/07/21 00:58:56;;;;;;;15.75;8.10;;;;;;;17.19;91.02;99989.94;6248963;28;20180;-78
2021/07/21 01:01:57;;;;;;;13.60;8.68;;;;;;;17.19;90.95;99989.94;6250453;28;20124;-77
2021/07/21 01:04:58;;;;;;;12.13;7.97;;;;;;;17.20;91.02;99986.34;6249191;28;20045;-77
2021/07/21 01:08:00;;;;;;;12.15;7.68;;;;;;;17.16;90.59;99982.34;6249087;28;20076;-77
2021/07/21 01:11:20;;;;;;;13.20;7.67;;;;;;;17.15;91.40;99981.47;6232693;28;20125;-77
2021/07/21 01:14:27;;;;;;;12.43;7.25;;;;;;;17.11;91.50;99983.56;6250195;28;20056;-77
2021/07/21 01:17:37;;;;;;;10.95;7.60;;;;;;;17.11;91.83;99974.81;6249114;28;20053;-78
2021/07/21 01:20:46;;;;;;;14.35;7.45;;;;;;;17.16;91.13;99977.06;6250052;28;20353;-77
2021/07/21 01:23:47;;;;;;;10.93;7.57;;;;;;;17.15;90.46;99970.09;6249920;28;20042;-77
2021/07/21 01:27:25;;;;;;;15.82;7.28;;;;;;;17.17;89.68;99970.81;6249888;28;20041;-77
2021/07/21 01:30:30;;;;;;;13.60;7.05;;;;;;;17.02;89.90;99965.09;6249697;28;20044;-77
2021/07/21 01:33:35;;;;;;;16.52;6.95;;;;;;;17.09;89.36;99961.78;6248480;28;20350;-78
2021/07/21 01:36:42;;;;;;;13.25;7.32;;;;;;;17.09;88.45;99958.31;6249598;28;20033;-77
2021/07/21 01:39:46;;;;;;;13.18;8.05;;;;;;;17.07;88.66;99960.25;6248255;28;20061;-78
2021/07/21 01:42:50;;;;;;;18.13;8.07;;;;;;;17.13;88.31;99962.31;6249422;28;20103;-77
2021/07/21 01:45:53;;;;;;;10.63;7.22;;;;;;;17.06;88.29;99961.22;6249412;28;20064;-77
2021/07/21 01:48:56;;;;;;;11.23;7.32;;;;;;;17.11;88.89;99965.13;6248169;28;20045;-77
2021/07/21 01:52:01;;;;;;;9.90;7.15;;;;;;;17.07;88.40;99961.09;6249317;28;20037;-77
2021/07/21 01:55:04;;;;;;;10.02;6.78;;;;;;;17.09;87.75;99964.44;6249153;28;20060;-77
2021/07/21 01:58:05;;;;;;;13.70;7.47;;;;;;;17.08;87.30;99973.28;6248972;28;20057;-77
2021/07/21 02:01:10;;;;;;;10.68;7.75;;;;;;;16.95;89.21;99972.75;6248001;28;20411;-77
2021/07/21 02:04:13;;;;;;;14.13;7.90;;;;;;;17.04;88.40;99979.81;6248064;28;20049;-77
2021/07/21 02:07:14;;;;;;;11.82;7.35;;;;;;;17.03;89.21;99982.59;6247795;28;20041;-77
2021/07/21 02:10:25;;;;;;;11.57;7.23;;;;;;;17.04;90.14;99982.44;6248703;28;20095;-78
2021/07/21 02:13:28;;;;;;;12.43;7.55;;;;;;;17.07;88.81;99973.41;6248756;28;20362;-78
2021/07/21 02:16:29;;;;;;;10.73;6.93;;;;;;;17.04;88.60;99982.44;6248666;28;20056;-77
2021/07/21 02:19:31;;;;;;;14.50;7.28;;;;;;;17.03;88.47;99983.44;6247548;28;20377;-77
2021/07/21 02:22:32;;;;;;;19.73;7.80;;;;;;;17.03;88.15;99985.25;6248454;28;20096;-78
2021/07/21 02:25:34;;;;;;;13.57;7.40;;;;;;;16.99;88.31;99983.84;6248471;28;20045;-77
2021/07/21 02:28:34;;;;;;;14.50;7.67;;;;;;;16.98;88.09;99976.91;6248418;28;20045;-77
2021/07/21 02:32:18;;;;;;;16.58;7.95;;;;;;;16.95;87.87;99993.00;6248412;28;20042;-77
2021/07/21 02:35:21;;;;;;;12.85;7.30;;;;;;;16.98;88.30;99987.44;6247220;28;20053;-77
2021/07/21 02:38:22;;;;;;;12.55;6.85;;;;;;;16.97;87.75;99991.06;6248234;28;20128;-77
2021/07/21 02:41:23;;;;;;;13.73;7.07;;;;;;;16.91;87.86;99972.16;6248179;28;20662;-77
2021/07/21 02:44:23;;;;;;;13.25;7.00;;;;;;;16.94;88.03;99978.13;6246932;28;20462;-77
2021/07/21 02:47:26;;;;;;;11.10;7.38;;;;;;;16.95;88.19;99988.56;6230339;28;20049;-77
2021/07/21 02:50:26;;;;;;;10.90;7.10;;;;;;;16.92;88.76;99992.31;6247895;28;20111;-78
2021/07/21 02:53:38;;;;;;;12.80;7.40;;;;;;;16.90;89.31;99988.09;6246595;28;20068;-77
2021/07/21 02:56:48;;;;;;;17.10;8.35;;;;;;;16.91;89.98;99992.44;6246572;28;20389;-78
2021/07/21 02:59:52;;;;;;;14.88;7.47;;;;;;;16.94;89.40;99992.13;6246321;28;20054;-77
2021/07/21 03:02:53;;;;;;;12.18;7.55;;;;;;;16.93;89.51;99995.75;6247608;28;20045;-77
2021/07/21 03:05:57;;;;;;;13.90;7.35;;;;;;;16.93;88.87;100006.31;6246466;28;20088;-77
2021/07/21 03:09:00;;;;;;;12.93;7.32;;;;;;;16.94;89.04;100010.59;6247420;28;20041;-77
2021/07/21 03:12:05;;;;;;;11.98;7.32;;;;;;;16.91;90.54;100014.34;6246254;28;20055;-77
2021/07/21 03:15:07;;;;;;;11.07;7.10;;;;;;;16.88;89.58;100014.63;6247200;28;20041;-77
2021/07/21 03:18:10;;;;;;;14.05;7.25;;;;;;;16.88;90.09;100026.94;6246053;28;20107;-78
2021/07/21 03:21:13;;;;;;;12.60;7.28;;;;;;;16.88;88.99;100030.44;6245723;28;20049;-77
2021/07/21 03:24:14;;;;;;;12.93;7.50;;;;;;;16.80;89.50;100032.88;6245849;28;20054;-77
2021/07/21 03:27:15;;;;;;;13.80;7.20;;;;;;;16.84;89.37;100033.44;6247064;28;20488;-78
2021/07/21 03:30:16;;;;;;;14.43;7.35;;;;;;;16.81;89.11;100028.47;6247041;28;20098;-78
2021/07/21 03:33:18;;;;;;;12.48;7.60;;;;;;;16.79;89.83;100035.63;6245737;28;20057;-78
2021/07/21 03:36:20;;;;;;;10.50;7.10;;;;;;;16.78;89.97;100034.81;6245710;28;20072;-77
2021/07/21 03:39:21;;;;;;;12.30;8.10;;;;;;;16.77;90.15;100042.84;6245513;28;20046;-78
2021/07/21 03:42:27;;;;;;;13.23;8.15;;;;;;;16.77;91.12;100043.66;6246750;28;20123;-77
2021/07/21 03:45:30;;;;;;;12.88;8.23;;;;;;;16.69;91.69;100046.97;6246799;28;20041;-77
2021/07/21 03:48:31;;;;;;;15.68;8.00;;;;;;;16.75;92.28;100042.13;6247217;28;20069;-78
2021/07/21 03:51:36;;;;;;;15.90;8.00;;;;;;;16.78;90.99;100045.34;6245076;28;20515;-77
2021/07/21 03:54:38;;;;;;;14.48;7.93;;;;;;;16.83;91.60;100052.88;6246531;28;20673;-77
2021/07/21 03:57:40;;;;;;;16.52;8.45;;;;;;;16.84;91.60;100058.03;6245059;28;20131;-78
2021/07/21 04:00:42;;;;;;;15.17;8.03;;;;;;;16.84;92.42;100062.44;6246446;28;20132;-77
2021/07/21 04:03:48;;;;;;;14.13;7.82;;;;;;;16.83;91.93;100050.25;6246278;28;20120;-78
2021/07/21 04:06:50;;;;;;;16.67;7.57;;;;;;;16.95;91.64;100064.97;6246247;28;20042;-77
2021/07/21 04:09:52;;;;;;;12.98;7.65;;;;;;;16.96;91.97;100069.28;6245037;28;20099;-78
2021/07/21 04:12:54;;;;;;;14.75;7.53;;;;;;;17.10;93.30;100073.34;6246216;28;20382;-77
2021/07/21 04:15:56;;;;;;;10.25;6.90;;;;;;;17.21;92.49;100073.22;6245090;28;20511;-78
2021/07/21 04:18:58;;;;;;;12.52;7.50;;;;;;;17.30;92.20;100076.84;6246236;28;20041;-78
2021/07/21 04:21:58;;;;;;;10.65;5.97;;;;;;;17.37;90.21;100083.22;6245077;28;20398;-78
2021/07/21 04:25:02;;;;;;;10.35;5.68;;;;;;;17.47;89.81;100081.44;6244730;28;20128;-78
2021/07/21 04:28:04;;;;;;;7.70;5.72;;;;;;;17.47;89.26;100077.97;6245501;28;20038;-77
2021/07/21 04:31:05;;;;;;;9.20;5.50;;;;;;;17.53;89.44;100072.16;6246034;28;20049;-77
2021/07/21 04:34:06;;;;;;;11.23;5.85;;;;;;;17.53;90.03;100072.16;6246046;28;20514;-77
2021/07/21 04:37:08;;;;;;;14.63;5.95;;;;;;;17.48;90.93;100069.09;6212212;28;20099;-77
2021/07/21 04:40:10;;;;;;;;;;;;;;;17.46;91.25;100076.31;6245088;28;20060;-77
2021/07/21 04:43:11;;;;;;;10.50;5.55;;;;;;;17.28;92.89;100084.06;6245895;28;19928;-77
2021/07/21 04:46:15;;;;;;;10.32;6.18;;;;;;;17.29;93.41;100094.47;6246067;28;20042;-77
2021/07/21 04:49:22;;;;;;;9.38;6.13;;;;;;;17.32;94.06;100091.56;6245854;28;20045;-77
2021/07/21 04:52:26;;;;;;;10.52;5.88;;;;;;;17.35;94.62;100098.34;6228235;28;20365;-77
2021/07/21 04:55:27;;;;;;;9.10;5.72;;;;;;;17.35;95.52;100097.53;6245694;28;20049;-77
2021/07/21 04:58:28;;;;;;;9.27;6.03;;;;;;;17.32;95.68;100102.13;6244402;28;20045;-77
2021/07/21 05:01:29;;;;;;;16.30;9.25;;;;;;;17.29;95.73;100102.38;6245564;28;20282;-77
2021/07/21 05:04:30;;;;;;;16.58;12.00;;;;;;;17.23;97.06;100110.00;6244305;28;20492;-77
2021/07/21 05:07:31;;;;;;;17.00;9.43;;;;;;;17.34;96.47;100109.91;6245630;28;20255;-77
2021/07/21 05:10:33;;;;;;;21.75;11.55;;;;;;;17.34;96.82;100115.16;6245345;28;20041;-78
2021/07/21 05:13:40;;;;;;;16.90;8.02;;;;;;;17.34;96.33;100112.53;6246287;28;20052;-78
2021/07/21 05:16:40;;;;;;;10.88;6.22;;;;;;;17.40;97.22;100113.78;6245388;28;20053;-77
2021/07/21 05:19:41;;;;;;;10.13;5.13;;;;;;;17.42;97.47;100119.75;6245332;28;20053;-77
2021/07/21 05:22:45;;;;;;;9.52;5.63;;;;;;;17.48;98.47;100116.56;6244087;28;20554;-77
2021/07/21 05:25:46;;;;;;;15.48;7.32;;;;;;;17.36;99.81;100126.41;6244161;28;20443;-77
2021/07/21 05:28:47;;;;;;;13.05;7.28;;;;;;;17.41;100.00;100128.63;6243983;28;20546;-78
2021/07/21 05:31:48;;;;;;;9.23;6.47;;;;;;;17.43;100.00;100138.06;6243998;28;20033;-77
2021/07/21 05:34:48;;;;;;;9.50;5.50;;;;;;;17.35;100.00;100134.47;6245234;28;20100;-77
2021/07/21 05:37:49;;;;;;;7.00;5.13;;;;;;;17.31;100.00;100137.34;6245168;28;20088;-78
2021/07/21 05:40:50;;;;;;;9.27;5.22;;;;;;;17.41;100.00;100145.28;6249455;28;20115;-77
2021/07/21 05:43:51;;;;;;;11.00;5.90;;;;;;;17.40;100.00;100156.81;6248158;28;20048;-77
2021/07/21 05:46:52;;;;;;;11.10;4.97;;;;;;;17.44;100.00;100154.72;6248067;28;20468;-78
2021/07/21 05:49:52;;;;;;;10.60;4.50;;;;;;;17.30;100.00;100169.16;6249320;28;20096;-78
2021/07/21 05:52:53;;;;;;;7.43;4.55;;;;;;;17.37;100.00;100172.91;6247922;28;20281;-77
2021/07/21 05:55:54;;;;;;;7.18;4.28;;;;;;;17.37;100.00;100166.81;6248150;28;20412;-77
2021/07/21 05:58:55;;;;;;;9.05;4.85;;;;;;;17.46;100.00;100177.38;6248872;28;20057;-78
2021/07/21 06:01:55;;;;;;;6.40;4.53;;;;;;;17.53;100.00;100170.59;6247868;28;20491;-78
2021/07/21 06:04:56;;;;;;;10.82;5.00;;;;;;;17.64;100.00;100174.06;6247682;28;20041;-77
2021/07/21 06:07:57;;;;;;;7.65;4.60;;;;;;;17.68;100.00;100164.91;6248871;28;20069;-77
2021/07/21 06:10:58;;;;;;;7.67;5.07;;;;;;;17.72;100.00;100171.59;6231455;28;20713;-77
2021/07/21 06:14:00;;;;;;;7.10;4.65;;;;;;;17.79;100.00;100166.59;6247720;28;20353;-77
2021/07/21 06:17:01;;;;;;;8.98;4.80;;;;;;;17.82;100.00;100175.06;6248646;28;20522;-77
2021/07/21 06:20:08;;;;;;;7.70;4.55;;;;;;;17.76;100.00;100175.63;6231319;28;20041;-77
2021/07/21 06:23:10;;;;;;;8.27;4.85;;;;;;;17.76;100.00;100180.91;6248397;28;20099;-78
2021/07/21 06:26:10;;;;;;;7.32;4.68;;;;;;;17.77;100.00;100173.81;6247275;28;20450;-77
2021/07/21 06:29:11;;;;;;;9.50;5.40;;;;;;;17.80;100.00;100189.38;6230785;28;20049;-78
2021/07/21 06:32:12;;;;;;;8.07;5.20;;;;;;;17.93;100.00;100176.78;6248308;28;20111;-78
2021/07/21 06:35:13;;;;;;;10.10;5.28;;;;;;;18.00;100.00;100177.09;6247160;28;20060;-78
2021/07/21 06:38:15;;;;;;;9.50;5.67;;;;;;;18.23;100.00;100178.47;6248261;28;20045;-77
2021/07/21 06:41:16;;;;;;;10.07;5.50;;;;;;;18.36;100.00;100186.09;6247992;28;20045;-78
2021/07/21 06:44:17;;;;;;;10.68;5.25;;;;;;;18.46;100.00;100186.91;6247931;28;20132;-78
2021/07/21 06:47:20;;;;;;;15.27;5.25;;;;;;;18.50;100.00;100188.28;6247940;28;20399;-77
2021/07/21 06:50:23;;;;;;;7.90;5.18;;;;;;;18.60;98.63;100187.47;6247452;28;20049;-78
2021/07/21 06:53:23;;;;;;;7.90;5.15;;;;;;;18.62;96.85;100188.97;6230309;28;20076;-78
2021/07/21 06:56:24;;;;;;;7.07;5.33;;;;;;;18.47;96.53;100196.50;6247781;28;20042;-77
2021/07/21 06:59:28;;;;;;;10.40;5.43;;;;;;;18.59;97.73;100206.91;6246326;28;20278;-78
2021/07/21 07:02:29;;;;;;;7.30;4.90;;;;;;;18.58;97.10;100202.63;6246400;28;20124;-78
2021/07/21 07:05:29;;;;;;;7.27;4.73;;;;;;;18.58;95.05;100206.09;6246387;28;20178;-78
2021/07/21 07:08:30;;;;;;;5.68;4.03;;;;;;;18.51;92.49;100211.13;6246389;28;20038;-78
2021/07/21 07:11:31;;;;;;;8.93;4.07;;;;;;;18.58;93.41;100218.47;6246511;28;20034;-78
2021/07/21 07:14:32;;;;;;;6.20;4.03;;;;;;;18.67;95.32;100221.06;6229791;28;20045;-77
2021/07/21 07:17:33;;;;;;;6.28;4.00;;;;;;;18.69;94.23;100221.78;6247279;28;20056;-77
2021/07/21 07:20:34;;;;;;;4.90;3.57;;;;;;;18.83;91.97;100222.34;6229765;28;20052;-78
2021/07/21 07:23:34;;;;;;;5.75;3.80;;;;;;;18.74;92.31;100231.94;6247158;28;20120;-78
2021/07/21 07:26:35;;;;;;;7.00;4.10;;;;;;;18.86;90.74;100236.13;6247030;28;20037;-77
2021/07/21 07:29:36;;;;;;;4.85;3.40;;;;;;;19.01;89.37;100239.13;6229647;28;20046;-78
2021/07/21 07:32:38;;;;;;;9.00;3.47;;;;;;;19.04;89.30;100241.47;6245800;28;20095;-78
2021/07/21 07:35:40;;;;;;;8.50;4.40;;;;;;;19.25;89.64;100249.22;6246943;28;20052;-77
2021/07/21 07:38:41;;;;;;;5.38;3.80;;;;;;;19.53;89.81;100257.19;6246838;28;20040;-78
2021/07/21 07:41:42;;;;;;;7.43;4.10;;;;;;;19.58;88.16;100248.78;6246764;28;20046;-77
2021/07/21 07:44:42;;;;;;;6.90;4.03;;;;;;;19.57;87.96;100260.38;6246746;28;20045;-78
2021/07/21 07:47:44;;;;;;;7.50;4.82;;;;;;;19.51;85.67;100252.03;6246747;28;20087;-78
2021/07/21 07:50:45;;;;;;;7.13;4.85;;;;;;;19.48;85.84;100252.34;6246773;28;20037;-77
2021/07/21 07:53:45;;;;;;;9.33;5.40;;;;;;;19.56;88.31;100253.41;6212594;28;20053;-77
2021/07/21 07:56:46;;;;;;;7.30;4.60;;;;;;;19.45;86.44;100257.06;6246623;28;20052;-77
2021/07/21 07:59:47;;;;;;;7.53;4.90;;;;;;;19.44;87.98;100250.13;6245165;28;20568;-77
2021/07/21 08:02:48;;;;;;;11.33;5.00;;;;;;;19.52;85.17;100252.88;6245667;28;20037;-77
2021/07/21 08:05:53;;;;;;;13.20;5.50;;;;;;;19.54;85.85;100250.91;6245057;28;20081;-78
2021/07/21 08:08:54;;;;;;;8.07;4.95;;;;;;;19.69;85.64;100257.38;6245126;28;20116;-77
2021/07/21 08:11:58;;;;;;;8.17;4.70;;;;;;;20.00;86.24;100258.91;6246360;28;20530;-77
2021/07/21 08:14:59;;;;;;;9.75;4.82;;;;;;;20.05;85.89;100256.63;6245116;28;20133;-78
2021/07/21 08:18:00;;;;;;;9.23;4.80;;;;;;;20.13;86.36;100262.00;6245150;28;20037;-78
2021/07/21 08:21:01;;;;;;;7.55;4.60;;;;;;;20.03;88.04;100258.59;6212393;28;20046;-77
2021/07/21 08:24:03;;;;;;;6.30;4.05;;;;;;;19.87;89.04;100268.03;6245964;28;20045;-77
2021/07/21 08:27:04;;;;;;;6.40;3.95;;;;;;;19.80;90.88;100272.25;6244633;28;20054;-78
2021/07/21 08:30:13;;;;;;;7.17;4.13;;;;;;;19.72;87.87;100267.69;6245049;28;20087;-78
2021/07/21 08:33:14;;;;;;;6.65;4.03;;;;;;;19.76;88.91;100265.59;6245802;28;20099;-78
2021/07/21 08:36:19;;;;;;;11.77;4.50;;;;;;;19.73;90.27;100274.66;6229091;28;20095;-77
2021/07/21 08:39:20;;;;;;;7.33;4.20;;;;;;;19.60;89.14;100268.00;6245891;28;20041;-78
2021/07/21 08:42:21;;;;;;;6.37;4.53;;;;;;;19.46;89.24;100269.34;6245733;28;20042;-78
2021/07/21 08:45:22;;;;;;;7.00;4.30;;;;;;;19.56;90.46;100272.78;6228118;28;20053;-78
2021/07/21 08:48:23;;;;;;;12.10;4.88;;;;;;;19.62;89.66;100272.19;6228398;28;20042;-78
2021/07/21 08:51:25;;;;;;;9.97;4.73;;;;;;;19.63;89.54;100273.03;6212185;28;20107;-78
2021/07/21 08:54:26;;;;;;;6.13;4.50;;;;;;;19.76;88.46;100276.16;6244563;28;20049;-77
2021/07/21 08:57:32;;;;;;;;;;;;;;;19.77;87.42;100274.34;6246397;28;20048;-77
2021/07/21 09:00:33;;;;;;;6.55;4.38;;;;;;;19.79;82.71;100273.25;6245776;28;19921;-77
2021/07/21 09:03:34;;;;;;;6.70;4.07;;;;;;;19.90;84.55;100282.78;6228093;28;20396;-77
2021/07/21 09:06:36;;;;;;;9.43;4.40;;;;;;;19.98;84.71;100277.59;6195445;28;20073;-78
2021/07/21 09:09:37;;;;;;;7.90;4.03;;;;;;;20.24;83.79;100282.13;6244442;28;20068;-77
2021/07/21 09:12:40;;;;;;;6.53;4.00;;;;;;;20.38;82.46;100288.75;6245468;28;20049;-78
2021/07/21 09:15:46;;;;;;;6.85;3.70;;;;;;;20.62;81.66;100282.88;6250216;28;20559;-77
2021/07/21 09:18:53;;;;;;;6.68;4.20;;;;;;;20.94;79.29;100287.59;6250308;28;20041;-77
2021/07/21 09:22:14;;;;;;;5.55;3.63;;;;;;;21.20;80.83;100292.06;6250154;28;20048;-77
2021/07/21 09:25:17;;;;;;;4.68;3.50;;;;;;;21.38;77.51;100292.00;6250055;28;20052;-77
2021/07/21 09:28:20;;;;;;;7.18;3.80;;;;;;;21.40;77.40;100290.03;6250089;28;20045;-77
2021/07/21 09:31:29;;;;;;;6.78;3.75;;;;;;;21.47;77.44;100288.41;6248777;28;20493;-77
2021/07/21 09:34:34;;;;;;;7.75;3.33;;;;;;;21.47;75.31;100285.75;6249887;28;20045;-77
2021/07/21 09:37:36;;;;;;;7.90;3.67;;;;;;;21.33;78.34;100293.31;6249810;28;20554;-77
2021/07/21 09:40:41;;;;;;;7.40;3.60;;;;;;;21.31;78.37;100291.78;6248565;28;20124;-77
2021/07/21 09:43:42;;;;;;;5.38;3.30;;;;;;;21.32;78.60;100298.75;6231936;28;20068;-77
2021/07/21 09:46:43;;;;;;;5.65;3.40;;;;;;;21.46;78.61;100300.88;6248289;28;20550;-77
2021/07/21 09:49:46;;;;;;;8.17;3.40;;;;;;;21.79;77.62;100294.88;6231925;28;20033;-77
2021/07/21 09:52:49;;;;;;;4.88;3.15;;;;;;;22.11;79.08;100294.13;6248063;28;20053;-77
2021/07/21 09:55:50;;;;;;;5.50;3.40;;;;;;;22.31;73.79;100300.81;6249193;28;20504;-77
2021/07/21 09:58:51;;;;;;;5.43;3.55;;;;;;;22.55;72.19;100301.88;6247978;28;20152;-77
2021/07/21 10:01:52;;;;;;;5.73;3.20;;;;;;;22.85;71.81;100288.88;6248008;28;20042;-77
2021/07/21 10:04:54;;;;;;;5.10;3.30;;;;;;;22.59;71.19;100297.03;6248029;28;20507;-77
2021/07/21 10:08:02;;;;;;;;;;;;;;;22.63;71.71;100293.88;6249437;28;20400;-77
2021/07/21 10:11:24;;;;;;;6.15;3.08;;;;;;;22.36;72.01;100300.31;6249057;28;20350;-77
2021/07/21 10:14:26;;;;;;;5.25;2.85;;;;;;;22.51;72.84;100293.38;6249187;28;20069;-77
2021/07/21 10:17:27;;;;;;;5.32;3.08;;;;;;;22.44;69.98;100292.38;6247729;28;20046;-77
2021/07/21 10:20:28;;;;;;;5.90;2.92;;;;;;;22.58;71.04;100295.38;6248685;28;20052;-77
2021/07/21 10:23:29;;;;;;;3.90;3.07;;;;;;;22.51;70.58;100281.91;6248514;28;20041;-77
2021/07/21 10:26:29;;;;;;;7.30;3.17;;;;;;;22.41;72.38;100295.38;6230485;28;20037;-77
2021/07/21 10:29:31;;;;;;;3.97;2.77;;;;;;;22.43;69.12;100290.72;6214796;28;20044;-77
2021/07/21 10:32:33;;;;;;;6.38;3.10;;;;;;;22.35;70.14;100297.84;6214597;28;20286;-77
2021/07/21 10:35:34;;;;;;;5.80;3.30;;;;;;;22.27;71.97;100285.38;6230924;28;20549;-78
2021/07/21 10:38:35;;;;;;;6.37;3.10;;;;;;;22.32;71.62;100293.69;6247171;28;20041;-77
2021/07/21 10:41:37;;;;;;;4.65;3.03;;;;;;;22.22;72.94;100293.00;6248341;28;20481;-77
2021/07/21 10:44:38;;;;;;;;;;;;;;;22.37;73.45;100294.03;6231052;28;20041;-77
2021/07/21 10:47:47;;;;;;;5.10;3.10;;;;;;;22.43;72.61;100301.34;6246868;28;20376;-77
2021/07/21 10:51:33;;;;;;;5.53;3.45;;;;;;;22.44;70.60;100296.84;6248078;28;20115;-77
2021/07/21 10:54:31;;;;;;;6.75;2.95;;;;;;;22.58;72.29;100303.34;6248126;28;20393;-77
2021/07/21 11:00:52;;;;;;;4.78;3.10;;;;;;;22.85;69.60;100297.69;6247981;28;20188;-77
2021/07/21 11:04:04;;;;;;;4.40;3.07;;;;;;;23.20;69.14;100306.31;6246305;28;20056;-77
2021/07/21 11:07:04;;;;;;;7.32;2.85;;;;;;;23.36;67.87;100292.16;6246642;28;20041;-77
2021/07/21 11:10:06;;;;;;;5.40;2.87;;;;;;;23.52;65.54;100289.44;6247766;28;20184;-77
2021/07/21 11:13:30;;;;;;;4.45;2.95;;;;;;;23.49;64.58;100289.78;6247496;28;20045;-77
2021/07/21 11:16:39;;;;;;;6.22;3.15;;;;;;;23.44;65.59;100293.97;6247312;28;20053;-77
2021/07/21 11:19:44;;;;;;;4.93;2.60;;;;;;;23.20;65.33;100287.69;6247505;28;20480;-77
2021/07/21 11:22:45;;;;;;;4.40;2.65;;;;;;;23.34;64.90;100294.16;6247187;28;20048;-77
2021/07/21 11:25:45;;;;;;;9.77;3.22;;;;;;;23.53;65.31;100290.25;6246003;28;20045;-77
2021/07/21 11:28:46;;;;;;;6.40;3.17;;;;;;;23.41;65.56;100284.50;6247209;28;20037;-77
2021/07/21 11:31:50;;;;;;;9.30;3.10;;;;;;;23.25;67.53;100292.53;6247138;28;20045;-77
2021/07/21 11:34:51;;;;;;;5.70;3.15;;;;;;;23.38;66.45;100289.31;6247069;28;20416;-77
2021/07/21 11:37:52;;;;;;;7.73;3.40;;;;;;;23.54;65.23;100294.59;6245758;28;20041;-77
2021/07/21 11:40:52;;;;;;;3.97;3.07;;;;;;;23.43;65.69;100294.94;6229318;28;20052;-77
2021/07/21 11:44:01;;;;;;;4.10;2.50;;;;;;;23.62;64.41;100301.72;6246782;28;20511;-77
2021/07/21 11:47:05;;;;;;;3.47;2.40;;;;;;;23.83;63.95;100293.16;6245723;28;20044;-77
2021/07/21 11:50:12;;;;;;;5.43;2.85;;;;;;;23.92;61.98;100300.09;6246704;28;20065;-77
2021/07/21 11:53:16;;;;;;;5.32;2.80;;;;;;;24.06;63.11;100294.03;6246723;28;20468;-77
2021/07/21 11:56:17;;;;;;;3.30;2.50;;;;;;;24.27;62.21;100289.91;6245309;28;20045;-78
2021/07/21 11:59:29;;;;;;;6.25;2.80;;;;;;;24.49;60.23;100299.78;6245076;28;20411;-77
2021/07/21 12:02:30;;;;;;;6.03;3.30;;;;;;;24.55;58.69;100302.75;6245469;28;20476;-77
2021/07/21 12:05:33;;;;;;;7.35;2.47;;;;;;;24.81;60.43;100302.34;6228865;28;20045;-77
2021/07/21 12:08:33;;;;;;;;;;;;;;;24.91;59.21;100298.44;6245588;28;20075;-77
2021/07/21 12:11:34;;;;;;;4.57;2.57;;;;;;;24.88;56.92;100304.13;6246385;28;19921;-77
2021/07/21 12:14:37;;;;;;;7.07;2.13;;;;;;;25.22;55.99;100297.47;6245173;28;20099;-77
2021/07/21 12:17:38;;;;;;;3.53;2.30;;;;;;;25.38;56.03;100298.31;6246245;28;20435;-77
2021/07/21 12:20:40;;;;;;;5.07;2.20;;;;;;;25.56;54.64;100304.09;6245031;28;20045;-77
2021/07/21 12:23:41;;;;;;;6.65;2.60;;;;;;;26.35;54.54;100303.38;6246271;28;20543;-77
2021/07/21 12:26:44;;;;;;;2.58;2.22;;;;;;;26.84;52.71;100301.81;6244773;28;20099;-77
2021/07/21 12:29:45;;;;;;;5.40;2.40;;;;;;;26.48;52.31;100292.84;6244811;28;20379;-77
2021/07/21 12:32:48;;;;;;;4.85;2.30;;;;;;;26.22;51.58;100306.75;6244969;28;20041;-77
2021/07/21 12:35:49;;;;;;;7.95;2.60;;;;;;;27.71;47.22;100304.00;6244807;28;20046;-77
2021/07/21 12:38:51;;;;;;;4.82;2.40;;;;;;;30.01;43.62;100294.69;6228265;28;20048;-77
2021/07/21 12:41:52;;;;;;;4.53;2.22;;;;;;;31.90;37.89;100297.13;6245749;28;20475;-78
2021/07/21 12:44:56;;;;;;;7.35;2.33;;;;;;;32.95;33.81;100298.44;6228214;28;20417;-78
2021/07/21 12:47:57;;;;;;;5.03;2.13;;;;;;;32.28;37.37;100295.97;6247533;28;20076;-78
2021/07/21 12:50:58;;;;;;;3.55;1.90;;;;;;;33.09;34.85;100307.13;6249891;28;20052;-78
2021/07/21 12:53:59;;;;;;;4.38;2.13;;;;;;;31.87;36.62;100309.16;6249606;28;20049;-78
2021/07/21 12:57:00;;;;;;;7.40;2.35;;;;;;;30.07;40.80;100294.63;6249359;28;20041;-78
2021/07/21 13:00:04;;;;;;;;;;;;;;;28.40;45.32;100301.34;6249825;28;20053;-78
2021/07/21 13:03:07;;;;;;;4.85;2.15;;;;;;;27.23;47.73;100313.84;6249433;28;19948;-77
2021/07/21 13:06:08;;;;;;;3.22;2.30;;;;;;;26.23;51.84;100297.75;6249355;28;20048;-77
2021/07/21 13:09:10;;;;;;;5.93;2.15;;;;;;;25.65;52.14;100316.34;6249314;28;20041;-77
2021/07/21 13:12:15;;;;;;;5.88;2.40;;;;;;;25.59;53.26;100316.25;6232594;28;20504;-77
2021/07/21 13:15:24;;;;;;;3.38;2.50;;;;;;;25.37;53.35;100307.31;6232828;28;20068;-77
2021/07/21 13:18:45;;;;;;;5.00;2.42;;;;;;;25.30;53.86;100302.72;6250264;28;20473;-77
2021/07/21 13:21:47;;;;;;;6.73;2.10;;;;;;;24.98;54.47;100311.03;6249069;28;20065;-77
2021/07/21 13:24:48;;;;;;;5.72;2.50;;;;;;;25.39;54.00;100306.16;6232447;28;20115;-77
2021/07/21 13:27:49;;;;;;;3.75;2.35;;;;;;;25.99;49.97;100306.94;6232575;28;20033;-77
2021/07/21 13:30:52;;;;;;;3.47;2.40;;;;;;;26.37;51.21;100287.97;6232349;28;20107;-78
2021/07/21 13:33:58;;;;;;;3.97;2.60;;;;;;;26.51;49.42;100284.41;6249219;28;20048;-78
2021/07/21 13:37:03;;;;;;;3.35;2.47;;;;;;;27.19;49.88;100283.91;6248669;28;20618;-78
2021/07/21 13:40:07;;;;;;;6.63;2.33;;;;;;;27.19;49.47;100286.59;6249891;28;20041;-78
2021/07/21 13:43:11;;;;;;;5.78;2.40;;;;;;;27.19;49.06;100281.25;6248664;28;20040;-78
2021/07/21 13:46:23;;;;;;;6.00;2.20;;;;;;;27.18;48.18;100284.97;6249809;28;20124;-78
2021/07/21 13:49:34;;;;;;;6.03;2.40;;;;;;;26.64;48.11;100281.03;6249598;28;20041;-79
2021/07/21 13:52:36;;;;;;;3.67;2.17;;;;;;;26.76;47.59;100277.84;6248380;28;20049;-78
2021/07/21 13:55:37;;;;;;;8.05;2.30;;;;;;;27.25;47.99;100282.34;6248090;28;20527;-79
2021/07/21 13:58:37;;;;;;;4.70;2.10;;;;;;;27.36;47.85;100280.94;6230452;28;20049;-79
2021/07/21 14:01:39;;;;;;;3.83;2.03;;;;;;;27.32;47.34;100277.84;6231251;28;20044;-79
2021/07/21 14:04:40;;;;;;;4.18;2.30;;;;;;;27.21;46.36;100273.84;6247931;28;20208;-79
2021/07/21 14:07:41;;;;;;;;;;;;;;;27.43;46.80;100276.47;6249365;28;20049;-79
2021/07/21 14:10:41;;;;;;;5.83;2.50;;;;;;;27.30;47.98;100283.41;6247911;28;20002;-79
2021/07/21 14:13:42;;;;;;;4.90;2.28;;;;;;;26.84;48.02;100272.34;6247725;28;20049;-79
2021/07/21 14:16:44;;;;;;;5.15;2.13;;;;;;;26.90;48.51;100274.25;6231117;28;20484;-79
2021/07/21 14:19:47;;;;;;;3.83;2.03;;;;;;;26.77;47.63;100271.47;6248624;28;20073;-79